createdAt,value
2022-07-27T00:01:20.170Z,46.15589
2022-07-27T00:06:21.837Z,44.98361
2022-07-27T00:11:23.589Z,45.4827
2022-07-27T00:16:25.329Z,45.14943
2022-07-27T00:21:26.933Z,45.4827
2022-07-27T00:26:28.581Z,45.14943
2022-07-27T00:31:30.218Z,44.98361
2022-07-27T00:36:31.713Z,44.32573
2022-07-27T00:41:33.184Z,44.65359
2022-07-27T00:46:34.907Z,45.14943
2022-07-27T00:51:36.500Z,45.31579
2022-07-27T00:56:38.472Z,45.31579
2022-07-27T01:01:40.017Z,45.81818
2022-07-27T01:06:41.504Z,45.4827
2022-07-27T01:11:43.082Z,44.81833
2022-07-27T01:16:44.563Z,44
2022-07-27T01:21:46.033Z,44.32573
2022-07-27T01:26:47.781Z,45.14943
2022-07-27T01:31:49.307Z,45.4827
2022-07-27T01:36:50.758Z,44.65359
2022-07-27T01:41:52.590Z,44.1626
2022-07-27T01:46:54.088Z,46.15589
2022-07-27T01:51:55.616Z,47.7037
2022-07-27T01:56:58.552Z,47.18258
2022-07-27T02:02:00.206Z,48.40678
2022-07-27T02:07:01.691Z,48.40678
2022-07-27T02:12:03.267Z,46.66667
2022-07-27T02:17:04.812Z,46.83806
2022-07-27T02:22:06.536Z,46.49584
2022-07-27T02:27:08.380Z,46.32558
2022-07-27T02:32:09.806Z,45.14943
2022-07-27T02:37:11.509Z,44.98361
2022-07-27T02:42:13.035Z,44.98361
2022-07-27T02:47:14.985Z,44.98361
2022-07-27T02:52:16.429Z,46.15589
2022-07-27T02:57:18.058Z,47.01003
2022-07-27T03:02:19.511Z,47.01003
2022-07-27T03:07:20.945Z,49.29915
2022-07-27T03:12:22.455Z,50.2069
2022-07-27T03:17:23.895Z,50.0241
2022-07-27T03:22:25.349Z,50.94444
2022-07-27T03:27:27.279Z,53.02655
2022-07-27T03:32:28.715Z,52.07018
2022-07-27T03:37:30.353Z,53.21986
2022-07-27T03:42:31.813Z,55.79673
2022-07-27T03:47:33.230Z,54.59246
2022-07-27T03:52:34.778Z,53.60854
2022-07-27T03:57:36.669Z,52.26011
2022-07-27T04:02:38.277Z,50.7591
2022-07-27T04:07:39.889Z,50.7591
2022-07-27T04:12:41.427Z,50.2069
2022-07-27T04:17:56.221Z,50.57439
2022-07-27T04:22:58.973Z,44.81833
2022-07-27T04:28:00.842Z,48.94037
2022-07-27T04:33:02.442Z,50.2069
2022-07-27T04:38:05.923Z,51.31707
2022-07-27T04:43:07.785Z,52.64198
2022-07-27T04:48:09.464Z,51.88091
2022-07-27T04:53:11.110Z,53.02655
2022-07-27T04:58:13.249Z,53.41385
2022-07-27T05:03:14.667Z,49.84192
2022-07-27T05:08:16.108Z,51.88091
2022-07-27T05:13:17.571Z,52.83392
2022-07-27T05:18:19.247Z,53.60854
2022-07-27T05:23:20.914Z,54.79137
2022-07-27T05:28:22.946Z,55.19134
2022-07-27T05:33:24.432Z,55.79673
2022-07-27T05:38:26.086Z,54.19678
2022-07-27T05:43:27.723Z,49.47945
2022-07-27T05:48:29.275Z,53.60854
2022-07-27T05:53:30.905Z,61.55725
2022-07-27T05:58:32.646Z,67.69478
2022-07-27T06:03:34.189Z,74.78556
2022-07-27T06:08:35.713Z,82.11659
2022-07-27T06:13:37.302Z,89.62648
2022-07-27T06:18:43.499Z,93.51456
2022-07-27T06:23:44.973Z,83.36652
2022-07-27T06:28:46.725Z,80.28319
2022-07-27T06:33:48.277Z,105.25654
2022-07-27T06:38:52.727Z,128.98498
2022-07-27T06:43:54.189Z,140.80511
2022-07-27T06:48:55.672Z,148.65116
2022-07-27T06:53:57.462Z,152.10811
2022-07-27T06:58:59.532Z,168.81752
2022-07-27T07:04:01.209Z,180.92308
2022-07-27T07:09:02.711Z,188.44444
2022-07-27T07:14:04.538Z,186.51969
2022-07-27T07:19:05.969Z,196.45902
2022-07-27T07:24:07.455Z,192.3871
2022-07-27T07:29:09.589Z,203.91561
2022-07-27T07:34:11.275Z,194.4065
2022-07-27T07:39:12.995Z,212.99563
2022-07-27T07:44:14.844Z,229.18519
2022-07-27T07:49:16.761Z,222.73303
2022-07-27T07:54:18.665Z,238.73684
2022-07-27T07:59:20.648Z,252
2022-07-27T08:04:22.055Z,268.21053
2022-07-27T08:09:23.467Z,205.01695
2022-07-27T08:14:25.019Z,162.43972
2022-07-27T08:19:26.585Z,194.4065
2022-07-27T08:24:28.126Z,245.96078
2022-07-27T08:29:36.614Z,256.69036
2022-07-27T08:34:38.787Z,276.97297
2022-07-27T08:40:38.185Z,300.06936
2022-07-27T08:45:41.017Z,308.49704
2022-07-27T08:50:43.037Z,319.60976
2022-07-27T08:55:44.637Z,302.13953
2022-07-27T09:00:46.525Z,284.33149
2022-07-27T09:05:48.043Z,296
2022-07-27T09:10:49.494Z,296
2022-07-27T09:21:14.197Z,261.52577
2022-07-27T09:26:30.377Z,306.35294
2022-07-27T09:31:33.196Z,275.1828
2022-07-27T09:36:34.925Z,302.13953
2022-07-27T09:41:36.390Z,278.78261
2022-07-27T09:46:40.886Z,290.06742
2022-07-27T09:52:00.474Z,296
2022-07-27T09:57:02.686Z,280.61202
2022-07-27T10:02:04.459Z,288.13408
2022-07-27T10:07:09.496Z,276.97297
2022-07-27T10:12:14.643Z,290.06742
2022-07-27T10:17:17.491Z,308.49704
2022-07-27T10:22:18.999Z,310.66667
2022-07-27T10:27:20.652Z,298.02299
2022-07-27T10:32:22.725Z,290.06742
2022-07-27T10:37:24.273Z,310.66667
2022-07-27T10:42:25.965Z,298.02299
2022-07-27T10:47:27.478Z,310.66667
2022-07-27T10:52:28.953Z,280.61202
2022-07-27T10:57:30.493Z,286.22222
2022-07-27T11:02:32.219Z,202.82353
2022-07-27T11:07:44.437Z,264.83333
2022-07-27T11:12:46.917Z,256.69036
2022-07-27T11:17:56.768Z,235.94313
2022-07-27T11:28:33.503Z,266.51309
2022-07-27T11:33:35.146Z,263.17098
2022-07-27T11:38:36.615Z,333.87342
2022-07-27T11:43:38.332Z,324.24691
2022-07-27T11:49:05.050Z,425.25
2022-07-27T11:54:07.929Z,414.22901
2022-07-27T11:59:09.388Z,417.84615
2022-07-27T12:04:11.733Z,498.95495
2022-07-27T12:09:13.711Z,453.09091
2022-07-27T12:14:15.445Z,448.91803
2022-07-27T12:19:17.072Z,504
2022-07-27T12:24:18.567Z,448.91803
2022-07-27T12:29:20.061Z,504
2022-07-27T12:34:22.494Z,475.03448
2022-07-27T12:39:23.940Z,429.03937
2022-07-27T12:44:25.348Z,429.03937
2022-07-27T12:49:28.053Z,479.65217
2022-07-27T12:54:29.696Z,509.13761
2022-07-27T12:59:31.133Z,509.13761
2022-07-27T13:04:32.756Z,530.66667
2022-07-27T13:10:02.249Z,525.13208
2022-07-27T13:15:05.570Z,470.49573
2022-07-27T13:20:07.258Z,494
2022-07-27T13:25:16.027Z,514.37037
2022-07-27T13:30:18.514Z,530.66667
2022-07-27T13:35:20.256Z,494
2022-07-27T13:40:21.666Z,466.0339
2022-07-27T13:45:23.192Z,470.49573
2022-07-27T13:50:24.734Z,377.80282
2022-07-27T13:55:28.411Z,514.37037
2022-07-27T14:00:30.101Z,547.92157
2022-07-27T14:05:32.194Z,754.52632
2022-07-27T14:10:36.346Z,620.92308
2022-07-27T14:15:54.570Z,744
2022-07-27T14:20:57.707Z,1064
2022-07-27T14:25:59.726Z,937.54839
2022-07-27T14:31:01.402Z,937.54839
2022-07-27T14:36:03.619Z,765.33333
2022-07-27T14:41:05.084Z,776.43243
2022-07-27T14:46:06.581Z,514.37037
2022-07-27T14:51:08.051Z,457.33333
2022-07-27T14:56:10.105Z,466.0339
2022-07-27T15:01:11.783Z,302.13953
2022-07-27T15:06:14.097Z,331.42138
2022-07-27T15:11:15.571Z,219
2022-07-27T15:16:17.065Z,154.23891
2022-07-27T15:21:18.682Z,154.9589
2022-07-27T15:26:20.168Z,134.71207
2022-07-27T15:31:22.055Z,150.71141
2022-07-27T15:36:33.402Z,92.07692
2022-07-27T15:41:37.065Z,119.49858
2022-07-27T15:46:38.520Z,89.97156
2022-07-27T15:51:40.133Z,92.07692
2022-07-27T15:56:41.676Z,170.47059
2022-07-27T16:01:43.164Z,233.20188
2022-07-27T16:06:44.958Z,180.92308
2022-07-27T16:11:46.414Z,102.76289
2022-07-27T16:16:47.987Z,96.47525
2022-07-27T16:21:54.873Z,109.5914
2022-07-27T16:26:57.411Z,86.92343
2022-07-27T16:31:59.100Z,76.75862
2022-07-27T16:37:00.856Z,83.68254
2022-07-27T16:42:02.470Z,87.58974
2022-07-27T16:47:04.059Z,71.80083
2022-07-27T16:52:06.736Z,70.48871
2022-07-27T16:57:08.655Z,65.9802
2022-07-27T17:02:10.299Z,63.84436
2022-07-27T17:07:12.308Z,65.02161
2022-07-27T17:12:17.614Z,68.69636
2022-07-27T17:17:20.597Z,71.01031
2022-07-27T17:22:22.199Z,72.33333
2022-07-27T17:27:23.698Z,74.23256
2022-07-27T17:32:25.267Z,69.71429
2022-07-27T17:37:38.586Z,74.50847
2022-07-27T17:42:57.937Z,88.60094
2022-07-27T17:47:59.403Z,210.66667
2022-07-27T17:53:00.979Z,231.85047
2022-07-27T17:58:02.375Z,231.85047
2022-07-27T18:03:03.965Z,133.53846
2022-07-27T18:08:05.825Z,78.20479
2022-07-27T18:13:07.270Z,220.23318
2022-07-27T18:18:08.747Z,344
2022-07-27T18:23:10.222Z,302.13953
2022-07-27T18:28:11.727Z,403.70149
2022-07-27T18:33:13.308Z,241.58454
2022-07-27T18:38:15.020Z,530.66667
2022-07-27T18:43:18.510Z,547.92157
2022-07-27T18:48:19.973Z,349.26316
2022-07-27T18:53:21.533Z,542.05825
2022-07-27T18:58:23.007Z,494
2022-07-27T19:03:24.838Z,514.37037
2022-07-27T19:08:29.746Z,475.03448
2022-07-27T19:13:31.271Z,371.77778
2022-07-27T19:18:32.846Z,338.87179
2022-07-27T19:23:34.413Z,360.21622
2022-07-27T19:28:35.855Z,494
2022-07-27T19:33:37.395Z,479.65217
2022-07-27T19:38:39.122Z,514.37037
2022-07-27T19:43:40.822Z,410.66667
2022-07-27T19:48:42.895Z,371.77778
2022-07-27T19:53:44.720Z,329
2022-07-27T19:58:46.201Z,417.84615
2022-07-27T20:03:52.611Z,466.0339
2022-07-27T20:08:56.701Z,466.0339
2022-07-27T20:13:58.242Z,410.66667
2022-07-27T20:18:59.902Z,489.13274
2022-07-27T20:24:01.528Z,509.13761
2022-07-27T20:29:03.027Z,504
2022-07-27T20:34:04.596Z,432.88889
2022-07-27T20:39:07.328Z,436.8
2022-07-27T20:44:09.073Z,453.09091
2022-07-27T20:49:10.923Z,414.22901
2022-07-27T20:54:12.696Z,436.8
2022-07-27T20:59:16.659Z,461.64706
2022-07-27T21:04:18.636Z,421.51938
2022-07-27T21:09:20.376Z,410.66667
2022-07-27T21:14:21.924Z,417.84615
2022-07-27T21:19:23.369Z,357.42282
2022-07-27T21:24:24.981Z,368.82759
2022-07-27T21:29:26.942Z,333.87342
2022-07-27T21:34:33.314Z,317.33333
2022-07-27T21:39:35.090Z,321.91411
2022-07-27T21:44:36.496Z,331.42138
2022-07-27T21:49:38.148Z,310.66667
2022-07-27T21:54:39.812Z,304.23392
2022-07-27T21:59:41.302Z,333.87342
2022-07-27T22:04:42.748Z,331.42138
2022-07-27T22:09:44.517Z,290.06742
2022-07-27T22:14:45.951Z,217.77778
2022-07-27T22:19:47.394Z,273.41176
2022-07-27T22:24:48.931Z,410.66667
2022-07-27T22:29:50.329Z,461.64706
2022-07-27T22:34:51.864Z,461.64706
2022-07-27T22:39:55.929Z,432.88889
2022-07-27T22:44:57.393Z,484.35088
2022-07-27T22:49:58.853Z,470.49573
2022-07-27T22:55:00.320Z,525.13208
2022-07-27T23:00:01.928Z,536.30769
2022-07-27T23:05:03.418Z,613.56522
2022-07-27T23:10:05.102Z,599.31915
2022-07-27T23:15:06.545Z,628.44444
2022-07-27T23:20:08.122Z,572.57143
2022-07-27T23:25:09.878Z,592.42105
2022-07-27T23:30:16.302Z,498.95495
2022-07-27T23:35:17.776Z,530.66667
2022-07-27T23:40:19.506Z,592.42105
2022-07-27T23:45:21.197Z,620.92308
2022-07-27T23:50:22.690Z,686.16867
2022-07-27T23:55:24.188Z,519.70093
